sensor_id;sensor_type;location;lat;lon;timestamp;temperature;humidity
17954;DHT22;9102;53.548;9.926;2022-08-30T00:02:18;16.30;99.90
17954;DHT22;9102;53.548;9.926;2022-08-30T00:04:45;16.30;99.90
17954;DHT22;9102;53.548;9.926;2022-08-30T00:07:12;16.30;99.90
17954;DHT22;9102;53.548;9.926;2022-08-30T00:09:39;16.30;99.90
17954;DHT22;9102;53.548;9.926;2022-08-30T00:12:06;16.30;99.90
17954;DHT22;9102;53.548;9.926;2022-08-30T00:14:34;16.30;99.90
17954;DHT22;9102;53.548;9.926;2022-08-30T00:17:00;16.30;99.90
17954;DHT22;9102;53.548;9.926;2022-08-30T00:19:29;16.30;99.90
17954;DHT22;9102;53.548;9.926;2022-08-30T00:21:55;16.10;99.90
17954;DHT22;9102;53.548;9.926;2022-08-30T00:24:22;16.20;99.90
17954;DHT22;9102;53.548;9.926;2022-08-30T00:26:49;16.20;99.90
17954;DHT22;9102;53.548;9.926;2022-08-30T00:29:16;16.20;99.90
17954;DHT22;9102;53.548;9.926;2022-08-30T00:31:43;16.20;99.90
17954;DHT22;9102;53.548;9.926;2022-08-30T00:34:09;16.20;99.90
17954;DHT22;9102;53.548;9.926;2022-08-30T00:36:38;16.30;99.90
17954;DHT22;9102;53.548;9.926;2022-08-30T00:39:04;16.30;99.90
17954;DHT22;9102;53.548;9.926;2022-08-30T00:41:31;16.30;99.90
17954;DHT22;9102;53.548;9.926;2022-08-30T00:43:58;16.30;99.90
17954;DHT22;9102;53.548;9.926;2022-08-30T00:46:25;16.30;99.90
17954;DHT22;9102;53.548;9.926;2022-08-30T00:48:52;16.30;99.90
17954;DHT22;9102;53.548;9.926;2022-08-30T00:51:20;16.30;99.90
17954;DHT22;9102;53.548;9.926;2022-08-30T00:53:52;16.30;99.90
17954;DHT22;9102;53.548;9.926;2022-08-30T00:56:19;16.50;99.90
17954;DHT22;9102;53.548;9.926;2022-08-30T00:58:49;16.30;99.90
17954;DHT22;9102;53.548;9.926;2022-08-30T01:01:18;16.30;99.90
17954;DHT22;9102;53.548;9.926;2022-08-30T01:03:45;16.30;99.90
17954;DHT22;9102;53.548;9.926;2022-08-30T01:06:13;16.40;99.90
17954;DHT22;9102;53.548;9.926;2022-08-30T01:08:40;16.40;99.90
17954;DHT22;9102;53.548;9.926;2022-08-30T01:11:09;16.40;99.90
17954;DHT22;9102;53.548;9.926;2022-08-30T01:13:37;16.40;99.90
17954;DHT22;9102;53.548;9.926;2022-08-30T01:16:05;16.30;99.90
17954;DHT22;9102;53.548;9.926;2022-08-30T01:18:32;16.30;99.90
17954;DHT22;9102;53.548;9.926;2022-08-30T01:21:04;16.30;99.90
17954;DHT22;9102;53.548;9.926;2022-08-30T01:23:39;16.30;99.90
17954;DHT22;9102;53.548;9.926;2022-08-30T01:26:07;16.30;99.90
17954;DHT22;9102;53.548;9.926;2022-08-30T01:28:35;16.30;99.90
17954;DHT22;9102;53.548;9.926;2022-08-30T01:31:02;16.30;99.90
17954;DHT22;9102;53.548;9.926;2022-08-30T01:33:30;16.30;99.90
17954;DHT22;9102;53.548;9.926;2022-08-30T01:35:59;16.40;99.90
17954;DHT22;9102;53.548;9.926;2022-08-30T01:38:29;16.40;99.90
17954;DHT22;9102;53.548;9.926;2022-08-30T01:41:06;16.40;99.90
17954;DHT22;9102;53.548;9.926;2022-08-30T01:43:34;16.40;99.90
17954;DHT22;9102;53.548;9.926;2022-08-30T01:46:00;16.40;99.90
17954;DHT22;9102;53.548;9.926;2022-08-30T01:48:28;16.40;99.90
17954;DHT22;9102;53.548;9.926;2022-08-30T01:50:55;16.40;99.90
17954;DHT22;9102;53.548;9.926;2022-08-30T01:53:22;16.50;99.90
17954;DHT22;9102;53.548;9.926;2022-08-30T01:55:48;16.40;99.90
17954;DHT22;9102;53.548;9.926;2022-08-30T01:58:17;16.30;99.90
17954;DHT22;9102;53.548;9.926;2022-08-30T02:00:43;16.30;99.90
17954;DHT22;9102;53.548;9.926;2022-08-30T02:03:10;16.30;99.90
17954;DHT22;9102;53.548;9.926;2022-08-30T02:05:37;16.30;99.90
17954;DHT22;9102;53.548;9.926;2022-08-30T02:08:04;16.30;99.90
17954;DHT22;9102;53.548;9.926;2022-08-30T02:10:31;16.20;99.90
17954;DHT22;9102;53.548;9.926;2022-08-30T02:12:58;16.20;99.90
17954;DHT22;9102;53.548;9.926;2022-08-30T02:15:26;16.10;99.90
17954;DHT22;9102;53.548;9.926;2022-08-30T02:17:53;16.10;99.90
17954;DHT22;9102;53.548;9.926;2022-08-30T02:20:19;16.10;99.90
17954;DHT22;9102;53.548;9.926;2022-08-30T02:22:46;16.00;99.90
17954;DHT22;9102;53.548;9.926;2022-08-30T02:25:13;16.10;99.90
17954;DHT22;9102;53.548;9.926;2022-08-30T02:27:40;16.00;99.90
17954;DHT22;9102;53.548;9.926;2022-08-30T02:30:08;16.00;99.90
17954;DHT22;9102;53.548;9.926;2022-08-30T02:32:37;16.00;99.90
17954;DHT22;9102;53.548;9.926;2022-08-30T02:35:04;16.00;99.90
17954;DHT22;9102;53.548;9.926;2022-08-30T02:37:32;15.90;99.90
17954;DHT22;9102;53.548;9.926;2022-08-30T02:39:58;16.00;99.90
17954;DHT22;9102;53.548;9.926;2022-08-30T02:42:25;16.00;99.90
17954;DHT22;9102;53.548;9.926;2022-08-30T02:44:52;15.90;99.90
17954;DHT22;9102;53.548;9.926;2022-08-30T02:47:19;15.90;99.90
17954;DHT22;9102;53.548;9.926;2022-08-30T02:49:47;15.90;99.90
17954;DHT22;9102;53.548;9.926;2022-08-30T02:52:14;15.90;99.90
17954;DHT22;9102;53.548;9.926;2022-08-30T02:54:41;15.90;99.90
17954;DHT22;9102;53.548;9.926;2022-08-30T02:57:07;15.90;99.90
17954;DHT22;9102;53.548;9.926;2022-08-30T02:59:34;15.90;99.90
17954;DHT22;9102;53.548;9.926;2022-08-30T03:02:06;15.90;99.90
17954;DHT22;9102;53.548;9.926;2022-08-30T03:04:33;15.90;99.90
17954;DHT22;9102;53.548;9.926;2022-08-30T03:07:01;15.90;99.90
17954;DHT22;9102;53.548;9.926;2022-08-30T03:09:28;15.90;99.90
17954;DHT22;9102;53.548;9.926;2022-08-30T03:11:54;15.90;99.90
17954;DHT22;9102;53.548;9.926;2022-08-30T03:14:21;15.90;99.90
17954;DHT22;9102;53.548;9.926;2022-08-30T03:16:48;15.90;99.90
17954;DHT22;9102;53.548;9.926;2022-08-30T03:19:16;15.80;99.90
17954;DHT22;9102;53.548;9.926;2022-08-30T03:21:43;15.80;99.90
17954;DHT22;9102;53.548;9.926;2022-08-30T03:24:11;15.70;99.90
17954;DHT22;9102;53.548;9.926;2022-08-30T03:26:39;15.70;99.90
17954;DHT22;9102;53.548;9.926;2022-08-30T03:29:06;15.70;99.90
17954;DHT22;9102;53.548;9.926;2022-08-30T03:31:33;15.60;99.90
17954;DHT22;9102;53.548;9.926;2022-08-30T03:34:00;15.70;99.90
17954;DHT22;9102;53.548;9.926;2022-08-30T03:36:27;15.70;99.90
17954;DHT22;9102;53.548;9.926;2022-08-30T03:38:54;15.70;99.90
17954;DHT22;9102;53.548;9.926;2022-08-30T03:41:22;15.70;99.90
17954;DHT22;9102;53.548;9.926;2022-08-30T03:43:49;15.70;99.90
17954;DHT22;9102;53.548;9.926;2022-08-30T03:46:16;15.60;99.90
17954;DHT22;9102;53.548;9.926;2022-08-30T03:48:43;15.30;99.90
17954;DHT22;9102;53.548;9.926;2022-08-30T03:51:10;15.00;99.90
17954;DHT22;9102;53.548;9.926;2022-08-30T03:53:37;14.80;99.90
17954;DHT22;9102;53.548;9.926;2022-08-30T03:56:04;14.70;99.90
17954;DHT22;9102;53.548;9.926;2022-08-30T03:58:33;14.80;99.90
17954;DHT22;9102;53.548;9.926;2022-08-30T04:00:59;14.80;99.90
17954;DHT22;9102;53.548;9.926;2022-08-30T04:03:26;14.70;99.90
17954;DHT22;9102;53.548;9.926;2022-08-30T04:05:54;14.70;99.90
17954;DHT22;9102;53.548;9.926;2022-08-30T04:08:21;14.70;99.90
17954;DHT22;9102;53.548;9.926;2022-08-30T04:10:49;14.80;99.90
17954;DHT22;9102;53.548;9.926;2022-08-30T04:13:18;14.90;99.90
17954;DHT22;9102;53.548;9.926;2022-08-30T04:15:46;14.90;99.90
17954;DHT22;9102;53.548;9.926;2022-08-30T04:18:13;15.00;99.90
17954;DHT22;9102;53.548;9.926;2022-08-30T04:20:40;15.00;99.90
17954;DHT22;9102;53.548;9.926;2022-08-30T04:23:08;15.10;99.90
17954;DHT22;9102;53.548;9.926;2022-08-30T04:25:37;15.10;99.90
17954;DHT22;9102;53.548;9.926;2022-08-30T04:28:06;15.20;99.90
17954;DHT22;9102;53.548;9.926;2022-08-30T04:30:33;15.20;99.90
17954;DHT22;9102;53.548;9.926;2022-08-30T04:33:01;15.20;99.90
17954;DHT22;9102;53.548;9.926;2022-08-30T04:35:28;15.20;99.90
17954;DHT22;9102;53.548;9.926;2022-08-30T04:37:55;15.20;99.90
17954;DHT22;9102;53.548;9.926;2022-08-30T04:40:21;15.20;99.90
17954;DHT22;9102;53.548;9.926;2022-08-30T04:42:49;15.30;99.90
17954;DHT22;9102;53.548;9.926;2022-08-30T04:45:20;15.30;99.90
17954;DHT22;9102;53.548;9.926;2022-08-30T04:47:47;15.30;99.90
17954;DHT22;9102;53.548;9.926;2022-08-30T04:50:17;15.30;99.90
17954;DHT22;9102;53.548;9.926;2022-08-30T04:52:44;15.40;99.90
17954;DHT22;9102;53.548;9.926;2022-08-30T04:55:12;15.40;99.90
17954;DHT22;9102;53.548;9.926;2022-08-30T04:57:40;15.40;99.90
17954;DHT22;9102;53.548;9.926;2022-08-30T05:00:11;15.40;99.90
17954;DHT22;9102;53.548;9.926;2022-08-30T05:02:39;15.40;99.90
17954;DHT22;9102;53.548;9.926;2022-08-30T05:05:07;15.50;99.90
17954;DHT22;9102;53.548;9.926;2022-08-30T05:07:53;15.50;99.90
17954;DHT22;9102;53.548;9.926;2022-08-30T05:10:20;15.50;99.90
17954;DHT22;9102;53.548;9.926;2022-08-30T05:12:48;15.60;99.90
17954;DHT22;9102;53.548;9.926;2022-08-30T05:15:15;15.60;99.90
17954;DHT22;9102;53.548;9.926;2022-08-30T05:17:41;15.60;99.90
17954;DHT22;9102;53.548;9.926;2022-08-30T05:20:10;15.70;99.90
17954;DHT22;9102;53.548;9.926;2022-08-30T05:22:39;15.70;99.90
17954;DHT22;9102;53.548;9.926;2022-08-30T05:25:08;15.70;99.90
17954;DHT22;9102;53.548;9.926;2022-08-30T05:27:35;15.70;99.90
17954;DHT22;9102;53.548;9.926;2022-08-30T05:30:02;15.80;99.90
17954;DHT22;9102;53.548;9.926;2022-08-30T05:32:30;15.80;99.90
17954;DHT22;9102;53.548;9.926;2022-08-30T05:34:57;15.80;99.90
17954;DHT22;9102;53.548;9.926;2022-08-30T05:37:24;15.90;99.90
17954;DHT22;9102;53.548;9.926;2022-08-30T05:39:51;15.90;99.90
17954;DHT22;9102;53.548;9.926;2022-08-30T05:42:19;15.90;99.90
17954;DHT22;9102;53.548;9.926;2022-08-30T05:44:49;15.90;99.90
17954;DHT22;9102;53.548;9.926;2022-08-30T05:47:16;16.00;99.90
17954;DHT22;9102;53.548;9.926;2022-08-30T05:49:43;16.00;99.90
17954;DHT22;9102;53.548;9.926;2022-08-30T05:52:10;16.00;99.90
17954;DHT22;9102;53.548;9.926;2022-08-30T05:54:38;16.10;99.90
17954;DHT22;9102;53.548;9.926;2022-08-30T05:57:05;16.20;99.90
17954;DHT22;9102;53.548;9.926;2022-08-30T05:59:33;16.20;99.90
17954;DHT22;9102;53.548;9.926;2022-08-30T06:02:00;16.20;99.90
17954;DHT22;9102;53.548;9.926;2022-08-30T06:04:27;16.20;99.90
17954;DHT22;9102;53.548;9.926;2022-08-30T06:06:54;16.20;99.90
17954;DHT22;9102;53.548;9.926;2022-08-30T06:09:22;16.30;99.90
17954;DHT22;9102;53.548;9.926;2022-08-30T06:11:48;16.30;99.90
17954;DHT22;9102;53.548;9.926;2022-08-30T06:14:15;16.40;99.90
17954;DHT22;9102;53.548;9.926;2022-08-30T06:16:43;16.50;99.90
17954;DHT22;9102;53.548;9.926;2022-08-30T06:19:11;16.60;99.90
17954;DHT22;9102;53.548;9.926;2022-08-30T06:21:40;16.60;99.90
17954;DHT22;9102;53.548;9.926;2022-08-30T06:24:09;16.70;99.90
17954;DHT22;9102;53.548;9.926;2022-08-30T06:26:38;16.80;99.90
17954;DHT22;9102;53.548;9.926;2022-08-30T06:29:06;16.80;99.90
17954;DHT22;9102;53.548;9.926;2022-08-30T06:31:33;16.80;99.90
17954;DHT22;9102;53.548;9.926;2022-08-30T06:34:02;16.80;99.90
17954;DHT22;9102;53.548;9.926;2022-08-30T06:36:30;16.90;99.90
17954;DHT22;9102;53.548;9.926;2022-08-30T06:38:58;17.00;99.90
17954;DHT22;9102;53.548;9.926;2022-08-30T06:41:26;17.00;99.90
17954;DHT22;9102;53.548;9.926;2022-08-30T06:43:55;17.00;99.90
17954;DHT22;9102;53.548;9.926;2022-08-30T06:46:25;17.00;99.90
17954;DHT22;9102;53.548;9.926;2022-08-30T06:48:53;17.00;99.90
17954;DHT22;9102;53.548;9.926;2022-08-30T06:51:23;17.10;99.90
17954;DHT22;9102;53.548;9.926;2022-08-30T06:53:51;17.10;99.90
17954;DHT22;9102;53.548;9.926;2022-08-30T06:56:18;17.30;99.90
17954;DHT22;9102;53.548;9.926;2022-08-30T06:58:46;17.40;99.90
17954;DHT22;9102;53.548;9.926;2022-08-30T07:01:14;17.50;99.90
17954;DHT22;9102;53.548;9.926;2022-08-30T07:03:42;17.50;99.90
17954;DHT22;9102;53.548;9.926;2022-08-30T07:06:09;17.50;99.90
17954;DHT22;9102;53.548;9.926;2022-08-30T07:08:38;17.50;99.90
17954;DHT22;9102;53.548;9.926;2022-08-30T07:11:05;17.60;99.90
17954;DHT22;9102;53.548;9.926;2022-08-30T07:13:33;17.60;99.90
17954;DHT22;9102;53.548;9.926;2022-08-30T07:16:01;17.60;99.90
17954;DHT22;9102;53.548;9.926;2022-08-30T07:18:34;17.70;99.90
17954;DHT22;9102;53.548;9.926;2022-08-30T07:21:16;17.70;99.90
17954;DHT22;9102;53.548;9.926;2022-08-30T07:23:46;17.80;99.90
17954;DHT22;9102;53.548;9.926;2022-08-30T07:26:16;17.80;99.90
17954;DHT22;9102;53.548;9.926;2022-08-30T07:28:44;18.00;99.90
17954;DHT22;9102;53.548;9.926;2022-08-30T07:31:12;18.10;99.90
17954;DHT22;9102;53.548;9.926;2022-08-30T07:33:40;18.30;99.90
17954;DHT22;9102;53.548;9.926;2022-08-30T07:36:07;18.40;99.90
17954;DHT22;9102;53.548;9.926;2022-08-30T07:38:34;18.50;99.90
17954;DHT22;9102;53.548;9.926;2022-08-30T07:41:03;18.50;99.90
17954;DHT22;9102;53.548;9.926;2022-08-30T07:43:31;18.50;99.90
17954;DHT22;9102;53.548;9.926;2022-08-30T07:46:00;18.60;99.90
17954;DHT22;9102;53.548;9.926;2022-08-30T07:48:27;18.60;99.90
17954;DHT22;9102;53.548;9.926;2022-08-30T07:50:54;18.60;99.90
17954;DHT22;9102;53.548;9.926;2022-08-30T07:53:21;18.60;99.90
17954;DHT22;9102;53.548;9.926;2022-08-30T07:55:48;18.70;99.90
17954;DHT22;9102;53.548;9.926;2022-08-30T07:58:16;18.80;99.90
17954;DHT22;9102;53.548;9.926;2022-08-30T08:00:43;19.00;99.90
17954;DHT22;9102;53.548;9.926;2022-08-30T08:03:10;19.10;99.90
17954;DHT22;9102;53.548;9.926;2022-08-30T08:05:38;19.10;99.90
17954;DHT22;9102;53.548;9.926;2022-08-30T08:08:05;19.20;99.90
17954;DHT22;9102;53.548;9.926;2022-08-30T08:10:32;19.30;99.90
17954;DHT22;9102;53.548;9.926;2022-08-30T08:12:59;19.40;99.90
17954;DHT22;9102;53.548;9.926;2022-08-30T08:15:27;19.50;99.90
17954;DHT22;9102;53.548;9.926;2022-08-30T08:17:54;19.50;99.90
17954;DHT22;9102;53.548;9.926;2022-08-30T08:20:22;19.40;99.90
17954;DHT22;9102;53.548;9.926;2022-08-30T08:22:49;19.60;99.90
17954;DHT22;9102;53.548;9.926;2022-08-30T08:25:16;19.70;99.90
17954;DHT22;9102;53.548;9.926;2022-08-30T08:27:45;19.80;99.90
17954;DHT22;9102;53.548;9.926;2022-08-30T08:30:13;19.90;99.90
17954;DHT22;9102;53.548;9.926;2022-08-30T08:32:42;20.00;99.90
17954;DHT22;9102;53.548;9.926;2022-08-30T08:35:08;20.10;99.90
17954;DHT22;9102;53.548;9.926;2022-08-30T08:37:36;20.20;99.90
17954;DHT22;9102;53.548;9.926;2022-08-30T08:40:04;20.10;99.90
17954;DHT22;9102;53.548;9.926;2022-08-30T08:42:39;20.10;99.90
17954;DHT22;9102;53.548;9.926;2022-08-30T08:45:15;20.20;99.90
17954;DHT22;9102;53.548;9.926;2022-08-30T08:47:52;20.10;99.90
17954;DHT22;9102;53.548;9.926;2022-08-30T08:50:22;20.00;99.90
17954;DHT22;9102;53.548;9.926;2022-08-30T08:52:51;20.00;99.90
17954;DHT22;9102;53.548;9.926;2022-08-30T08:55:40;20.10;99.90
17954;DHT22;9102;53.548;9.926;2022-08-30T08:58:14;20.10;99.90
17954;DHT22;9102;53.548;9.926;2022-08-30T09:00:44;20.10;99.90
17954;DHT22;9102;53.548;9.926;2022-08-30T09:03:12;20.20;99.90
17954;DHT22;9102;53.548;9.926;2022-08-30T09:05:42;20.30;99.90
17954;DHT22;9102;53.548;9.926;2022-08-30T09:08:12;20.70;99.90
17954;DHT22;9102;53.548;9.926;2022-08-30T09:10:40;20.80;99.90
17954;DHT22;9102;53.548;9.926;2022-08-30T09:13:08;21.00;99.90
17954;DHT22;9102;53.548;9.926;2022-08-30T09:15:35;21.00;99.90
17954;DHT22;9102;53.548;9.926;2022-08-30T09:18:04;21.10;99.90
17954;DHT22;9102;53.548;9.926;2022-08-30T09:20:36;21.00;99.90
17954;DHT22;9102;53.548;9.926;2022-08-30T09:23:20;21.10;99.90
17954;DHT22;9102;53.548;9.926;2022-08-30T09:25:53;20.90;99.90
17954;DHT22;9102;53.548;9.926;2022-08-30T09:28:22;20.90;99.90
17954;DHT22;9102;53.548;9.926;2022-08-30T09:31:02;20.70;99.90
17954;DHT22;9102;53.548;9.926;2022-08-30T09:33:30;20.60;99.90
17954;DHT22;9102;53.548;9.926;2022-08-30T09:36:11;20.60;99.90
17954;DHT22;9102;53.548;9.926;2022-08-30T09:38:38;20.50;99.90
17954;DHT22;9102;53.548;9.926;2022-08-30T09:41:26;20.40;99.90
17954;DHT22;9102;53.548;9.926;2022-08-30T09:44:04;20.30;99.90
17954;DHT22;9102;53.548;9.926;2022-08-30T09:46:31;20.20;99.90
17954;DHT22;9102;53.548;9.926;2022-08-30T09:48:58;20.20;99.90
17954;DHT22;9102;53.548;9.926;2022-08-30T09:51:38;20.30;99.90
17954;DHT22;9102;53.548;9.926;2022-08-30T09:54:14;20.40;99.90
17954;DHT22;9102;53.548;9.926;2022-08-30T09:56:51;20.50;99.90
17954;DHT22;9102;53.548;9.926;2022-08-30T09:59:35;20.70;99.90
17954;DHT22;9102;53.548;9.926;2022-08-30T10:02:19;20.70;99.90
17954;DHT22;9102;53.548;9.926;2022-08-30T10:04:58;20.70;99.90
17954;DHT22;9102;53.548;9.926;2022-08-30T10:07:32;20.70;99.90
17954;DHT22;9102;53.548;9.926;2022-08-30T10:10:08;20.80;99.90
17954;DHT22;9102;53.548;9.926;2022-08-30T10:12:40;20.60;99.90
17954;DHT22;9102;53.548;9.926;2022-08-30T10:15:23;20.50;99.90
17954;DHT22;9102;53.548;9.926;2022-08-30T10:18:16;20.50;99.90
17954;DHT22;9102;53.548;9.926;2022-08-30T10:21:03;20.40;99.90
17954;DHT22;9102;53.548;9.926;2022-08-30T10:23:36;20.30;99.90
17954;DHT22;9102;53.548;9.926;2022-08-30T10:26:22;20.30;99.90
17954;DHT22;9102;53.548;9.926;2022-08-30T10:28:56;20.40;99.90
17954;DHT22;9102;53.548;9.926;2022-08-30T10:31:31;20.50;99.90
17954;DHT22;9102;53.548;9.926;2022-08-30T10:34:16;20.50;99.90
17954;DHT22;9102;53.548;9.926;2022-08-30T10:36:48;20.60;99.90
17954;DHT22;9102;53.548;9.926;2022-08-30T10:39:23;20.40;99.90
17954;DHT22;9102;53.548;9.926;2022-08-30T10:42:01;20.40;99.90
17954;DHT22;9102;53.548;9.926;2022-08-30T10:44:31;20.30;99.90
17954;DHT22;9102;53.548;9.926;2022-08-30T10:47:11;20.30;99.90
17954;DHT22;9102;53.548;9.926;2022-08-30T10:49:45;20.50;99.90
17954;DHT22;9102;53.548;9.926;2022-08-30T10:52:22;20.60;99.90
17954;DHT22;9102;53.548;9.926;2022-08-30T10:54:56;20.70;99.90
17954;DHT22;9102;53.548;9.926;2022-08-30T10:57:35;20.80;99.90
17954;DHT22;9102;53.548;9.926;2022-08-30T11:00:11;20.80;99.90
17954;DHT22;9102;53.548;9.926;2022-08-30T11:03:33;20.80;99.90
17954;DHT22;9102;53.548;9.926;2022-08-30T11:06:10;20.90;99.90
17954;DHT22;9102;53.548;9.926;2022-08-30T11:09:04;21.00;99.90
17954;DHT22;9102;53.548;9.926;2022-08-30T11:11:55;21.10;99.90
17954;DHT22;9102;53.548;9.926;2022-08-30T11:14:27;21.20;99.90
17954;DHT22;9102;53.548;9.926;2022-08-30T11:17:01;21.20;99.90
17954;DHT22;9102;53.548;9.926;2022-08-30T11:19:36;21.40;99.90
17954;DHT22;9102;53.548;9.926;2022-08-30T11:22:11;21.60;99.90
17954;DHT22;9102;53.548;9.926;2022-08-30T11:25:10;21.80;99.90
17954;DHT22;9102;53.548;9.926;2022-08-30T11:27:48;22.00;99.90
17954;DHT22;9102;53.548;9.926;2022-08-30T11:30:46;22.30;99.90
17954;DHT22;9102;53.548;9.926;2022-08-30T11:33:40;22.30;99.90
17954;DHT22;9102;53.548;9.926;2022-08-30T11:36:12;22.50;99.90
17954;DHT22;9102;53.548;9.926;2022-08-30T11:39:08;22.10;99.90
17954;DHT22;9102;53.548;9.926;2022-08-30T11:42:09;21.80;99.90
17954;DHT22;9102;53.548;9.926;2022-08-30T11:44:40;21.70;99.90
17954;DHT22;9102;53.548;9.926;2022-08-30T11:50:14;21.60;99.90
17954;DHT22;9102;53.548;9.926;2022-08-30T11:52:54;21.60;99.90
17954;DHT22;9102;53.548;9.926;2022-08-30T11:55:48;21.40;99.90
17954;DHT22;9102;53.548;9.926;2022-08-30T11:58:30;21.40;99.90
17954;DHT22;9102;53.548;9.926;2022-08-30T12:01:35;21.40;99.90
17954;DHT22;9102;53.548;9.926;2022-08-30T12:04:26;21.50;99.90
17954;DHT22;9102;53.548;9.926;2022-08-30T12:06:55;21.60;99.90
17954;DHT22;9102;53.548;9.926;2022-08-30T12:12:53;21.90;99.90
17954;DHT22;9102;53.548;9.926;2022-08-30T12:18:32;21.80;99.90
17954;DHT22;9102;53.548;9.926;2022-08-30T12:21:12;21.80;99.90
17954;DHT22;9102;53.548;9.926;2022-08-30T12:23:48;21.60;99.90
17954;DHT22;9102;53.548;9.926;2022-08-30T12:26:28;21.60;99.90
17954;DHT22;9102;53.548;9.926;2022-08-30T12:29:08;21.50;99.90
17954;DHT22;9102;53.548;9.926;2022-08-30T12:31:39;21.50;99.90
17954;DHT22;9102;53.548;9.926;2022-08-30T12:34:19;21.60;99.90
17954;DHT22;9102;53.548;9.926;2022-08-30T12:36:54;21.60;99.90
17954;DHT22;9102;53.548;9.926;2022-08-30T12:39:26;21.50;99.90
17954;DHT22;9102;53.548;9.926;2022-08-30T12:41:53;21.30;99.90
17954;DHT22;9102;53.548;9.926;2022-08-30T12:44:22;21.30;99.90
17954;DHT22;9102;53.548;9.926;2022-08-30T12:46:54;21.30;99.90
17954;DHT22;9102;53.548;9.926;2022-08-30T12:49:25;21.40;99.90
17954;DHT22;9102;53.548;9.926;2022-08-30T12:51:53;21.40;99.90
17954;DHT22;9102;53.548;9.926;2022-08-30T12:54:22;21.60;99.90
17954;DHT22;9102;53.548;9.926;2022-08-30T12:56:56;21.60;99.90
17954;DHT22;9102;53.548;9.926;2022-08-30T12:59:46;21.60;99.90
17954;DHT22;9102;53.548;9.926;2022-08-30T13:02:17;21.50;99.90
17954;DHT22;9102;53.548;9.926;2022-08-30T13:04:46;21.40;99.90
17954;DHT22;9102;53.548;9.926;2022-08-30T13:07:31;21.30;99.90
17954;DHT22;9102;53.548;9.926;2022-08-30T13:10:02;21.30;99.90
17954;DHT22;9102;53.548;9.926;2022-08-30T13:12:30;21.40;99.90
17954;DHT22;9102;53.548;9.926;2022-08-30T13:15:10;21.50;99.90
17954;DHT22;9102;53.548;9.926;2022-08-30T13:17:37;21.60;99.90
17954;DHT22;9102;53.548;9.926;2022-08-30T13:20:21;21.80;99.90
17954;DHT22;9102;53.548;9.926;2022-08-30T13:23:02;21.90;99.90
17954;DHT22;9102;53.548;9.926;2022-08-30T13:25:29;22.10;99.90
17954;DHT22;9102;53.548;9.926;2022-08-30T13:27:57;22.20;99.90
17954;DHT22;9102;53.548;9.926;2022-08-30T13:30:25;22.10;99.90
17954;DHT22;9102;53.548;9.926;2022-08-30T13:32:51;22.00;99.90
17954;DHT22;9102;53.548;9.926;2022-08-30T13:35:20;22.00;99.90
17954;DHT22;9102;53.548;9.926;2022-08-30T13:37:46;22.10;99.90
17954;DHT22;9102;53.548;9.926;2022-08-30T13:40:14;22.00;99.90
17954;DHT22;9102;53.548;9.926;2022-08-30T13:42:42;22.00;99.90
17954;DHT22;9102;53.548;9.926;2022-08-30T13:45:10;21.70;99.90
17954;DHT22;9102;53.548;9.926;2022-08-30T13:47:38;21.50;99.90
17954;DHT22;9102;53.548;9.926;2022-08-30T13:50:07;21.20;99.90
17954;DHT22;9102;53.548;9.926;2022-08-30T13:52:36;21.10;99.90
17954;DHT22;9102;53.548;9.926;2022-08-30T13:55:03;21.00;99.90
17954;DHT22;9102;53.548;9.926;2022-08-30T13:57:31;21.00;99.90
17954;DHT22;9102;53.548;9.926;2022-08-30T13:59:58;21.00;99.90
17954;DHT22;9102;53.548;9.926;2022-08-30T14:02:25;20.80;99.90
17954;DHT22;9102;53.548;9.926;2022-08-30T14:04:51;20.80;99.90
17954;DHT22;9102;53.548;9.926;2022-08-30T14:07:18;21.00;99.90
17954;DHT22;9102;53.548;9.926;2022-08-30T14:09:46;21.20;99.90
17954;DHT22;9102;53.548;9.926;2022-08-30T14:12:13;21.40;99.90
17954;DHT22;9102;53.548;9.926;2022-08-30T14:14:40;21.50;99.90
17954;DHT22;9102;53.548;9.926;2022-08-30T14:17:07;21.50;99.90
17954;DHT22;9102;53.548;9.926;2022-08-30T14:19:34;21.60;99.90
17954;DHT22;9102;53.548;9.926;2022-08-30T14:22:00;21.60;99.90
17954;DHT22;9102;53.548;9.926;2022-08-30T14:24:27;21.60;99.90
17954;DHT22;9102;53.548;9.926;2022-08-30T14:26:55;21.60;99.90
17954;DHT22;9102;53.548;9.926;2022-08-30T14:29:24;21.70;99.90
17954;DHT22;9102;53.548;9.926;2022-08-30T14:31:54;21.60;99.90
17954;DHT22;9102;53.548;9.926;2022-08-30T14:34:26;21.70;99.90
17954;DHT22;9102;53.548;9.926;2022-08-30T14:36:53;21.70;99.90
17954;DHT22;9102;53.548;9.926;2022-08-30T14:39:21;21.70;99.90
17954;DHT22;9102;53.548;9.926;2022-08-30T14:41:49;21.80;99.90
17954;DHT22;9102;53.548;9.926;2022-08-30T14:44:19;21.80;99.90
17954;DHT22;9102;53.548;9.926;2022-08-30T14:46:47;21.60;99.90
17954;DHT22;9102;53.548;9.926;2022-08-30T14:49:14;21.60;99.90
17954;DHT22;9102;53.548;9.926;2022-08-30T14:51:41;21.50;99.90
17954;DHT22;9102;53.548;9.926;2022-08-30T14:54:11;21.30;99.90
17954;DHT22;9102;53.548;9.926;2022-08-30T14:56:38;21.10;99.90
17954;DHT22;9102;53.548;9.926;2022-08-30T14:59:05;21.00;99.90
17954;DHT22;9102;53.548;9.926;2022-08-30T15:01:34;21.00;99.90
17954;DHT22;9102;53.548;9.926;2022-08-30T15:04:01;21.00;99.90
17954;DHT22;9102;53.548;9.926;2022-08-30T15:06:28;20.80;99.90
17954;DHT22;9102;53.548;9.926;2022-08-30T15:08:55;20.90;99.90
17954;DHT22;9102;53.548;9.926;2022-08-30T15:11:23;21.00;99.90
17954;DHT22;9102;53.548;9.926;2022-08-30T15:13:51;21.10;99.90
17954;DHT22;9102;53.548;9.926;2022-08-30T15:16:20;21.30;99.90
17954;DHT22;9102;53.548;9.926;2022-08-30T15:18:48;21.40;99.90
17954;DHT22;9102;53.548;9.926;2022-08-30T15:21:21;21.40;99.90
17954;DHT22;9102;53.548;9.926;2022-08-30T15:23:48;21.60;99.90
17954;DHT22;9102;53.548;9.926;2022-08-30T15:26:15;21.40;99.90
17954;DHT22;9102;53.548;9.926;2022-08-30T15:28:42;21.30;99.90
17954;DHT22;9102;53.548;9.926;2022-08-30T15:31:09;21.20;99.90
17954;DHT22;9102;53.548;9.926;2022-08-30T15:33:36;21.10;99.90
17954;DHT22;9102;53.548;9.926;2022-08-30T15:36:05;21.00;99.90
17954;DHT22;9102;53.548;9.926;2022-08-30T15:38:33;20.90;99.90
17954;DHT22;9102;53.548;9.926;2022-08-30T15:41:02;20.80;99.90
17954;DHT22;9102;53.548;9.926;2022-08-30T15:43:29;20.60;99.90
17954;DHT22;9102;53.548;9.926;2022-08-30T15:45:56;20.50;99.90
17954;DHT22;9102;53.548;9.926;2022-08-30T15:48:27;20.40;99.90
17954;DHT22;9102;53.548;9.926;2022-08-30T15:50:55;20.50;99.90
17954;DHT22;9102;53.548;9.926;2022-08-30T15:53:24;20.50;99.90
17954;DHT22;9102;53.548;9.926;2022-08-30T15:55:51;20.60;99.90
17954;DHT22;9102;53.548;9.926;2022-08-30T15:58:17;20.50;99.90
17954;DHT22;9102;53.548;9.926;2022-08-30T16:00:44;20.60;99.90
17954;DHT22;9102;53.548;9.926;2022-08-30T16:03:11;20.60;99.90
17954;DHT22;9102;53.548;9.926;2022-08-30T16:05:38;20.60;99.90
17954;DHT22;9102;53.548;9.926;2022-08-30T16:08:05;20.60;99.90
17954;DHT22;9102;53.548;9.926;2022-08-30T16:10:33;20.50;99.90
17954;DHT22;9102;53.548;9.926;2022-08-30T16:13:00;20.40;99.90
17954;DHT22;9102;53.548;9.926;2022-08-30T16:15:27;20.30;99.90